createdAt,value
2023-01-25T00:00:00.684Z,70.9
2023-01-25T00:05:00.633Z,70.9
2023-01-25T00:10:00.647Z,71.3
2023-01-25T00:15:00.640Z,71.9
2023-01-25T00:20:00.658Z,70.9
2023-01-25T00:25:00.609Z,71.4
2023-01-25T00:30:00.643Z,71.4
2023-01-25T00:35:00.673Z,71.1
2023-01-25T00:40:00.645Z,72.9
2023-01-25T00:45:00.651Z,73.9
2023-01-25T00:50:00.644Z,71.9
2023-01-25T00:55:00.647Z,71.6
2023-01-25T01:00:00.657Z,71.4
2023-01-25T01:05:00.741Z,71.2
2023-01-25T01:10:00.640Z,71.4
2023-01-25T01:15:00.612Z,71.4
2023-01-25T01:20:00.663Z,71.5
2023-01-25T01:25:00.662Z,72.0
2023-01-25T01:30:00.649Z,71.8
2023-01-25T01:35:00.620Z,72.1
2023-01-25T01:40:00.662Z,72.4
2023-01-25T01:45:00.610Z,73.1
2023-01-25T01:50:00.649Z,73.2
2023-01-25T01:55:00.651Z,72.1
2023-01-25T02:00:00.650Z,72.2
2023-01-25T02:05:00.631Z,71.7
2023-01-25T02:10:00.666Z,72.5
2023-01-25T02:15:00.632Z,72.7
2023-01-25T02:20:00.655Z,72.9
2023-01-25T02:25:00.651Z,73.5
2023-01-25T02:30:00.660Z,75.9
2023-01-25T02:35:00.603Z,73.5
2023-01-25T02:40:00.655Z,73.9
2023-01-25T02:45:00.654Z,73.8
2023-01-25T02:50:00.636Z,74.3
2023-01-25T02:55:00.622Z,73.9
2023-01-25T03:00:00.876Z,75.0
2023-01-25T03:05:00.613Z,75.5
2023-01-25T03:10:00.665Z,75.8
2023-01-25T03:15:00.641Z,75.4
2023-01-25T03:20:00.675Z,77.1
2023-01-25T03:25:00.616Z,75.9
2023-01-25T03:30:00.635Z,75.7
2023-01-25T03:35:00.660Z,77.2
2023-01-25T03:40:00.653Z,76.1
2023-01-25T03:45:00.639Z,75.1
2023-01-25T03:50:00.651Z,75.0
2023-01-25T03:55:00.641Z,76.2
2023-01-25T04:00:00.642Z,76.2
2023-01-25T04:05:00.648Z,75.8
2023-01-25T04:10:00.803Z,75.4
2023-01-25T04:15:00.609Z,75.2
2023-01-25T04:20:00.804Z,74.7
2023-01-25T04:25:00.608Z,74.2
2023-01-25T04:30:00.695Z,74.0
2023-01-25T04:35:00.646Z,74.9
2023-01-25T04:40:00.624Z,73.8
2023-01-25T04:45:00.614Z,73.0
2023-01-25T04:50:00.645Z,73.6
2023-01-25T04:55:00.613Z,73.8
2023-01-25T05:00:00.683Z,73.4
2023-01-25T05:05:00.639Z,73.3
2023-01-25T05:10:00.634Z,72.6
2023-01-25T05:15:00.615Z,72.3
2023-01-25T05:20:00.662Z,72.9
2023-01-25T05:25:00.654Z,72.4
2023-01-25T05:30:00.669Z,72.1
2023-01-25T05:35:01.097Z,72.1
2023-01-25T05:40:00.603Z,71.8
2023-01-25T05:45:00.639Z,72.5
2023-01-25T05:50:00.652Z,73.1
2023-01-25T05:55:00.625Z,71.7
2023-01-25T06:00:00.613Z,72.2
2023-01-25T06:05:00.640Z,72.9
2023-01-25T06:10:00.634Z,72.2
2023-01-25T06:15:00.626Z,72.6
2023-01-25T06:20:00.665Z,73.0
2023-01-25T06:25:00.637Z,73.6
2023-01-25T06:30:00.648Z,72.9
2023-01-25T06:35:00.643Z,72.2
2023-01-25T06:40:00.688Z,72.2
2023-01-25T06:45:00.633Z,72.4
2023-01-25T06:50:00.667Z,73.0
2023-01-25T06:55:00.602Z,72.7
2023-01-25T07:00:00.649Z,75.8
2023-01-25T07:05:00.638Z,76.0
2023-01-25T07:10:00.688Z,75.5
2023-01-25T07:15:00.675Z,75.8
2023-01-25T07:20:00.613Z,74.9
2023-01-25T07:25:00.676Z,74.1
2023-01-25T07:30:00.622Z,73.6
2023-01-25T07:35:00.682Z,75.6
2023-01-25T07:40:00.636Z,76.1
2023-01-25T07:45:00.645Z,76.0
2023-01-25T07:50:00.605Z,75.4
2023-01-25T07:55:00.823Z,77.6
2023-01-25T08:00:00.649Z,78.3
2023-01-25T08:05:00.610Z,76.6
2023-01-25T08:10:00.676Z,75.2
2023-01-25T08:15:00.625Z,75.6
2023-01-25T08:20:00.643Z,75.3
2023-01-25T08:25:00.635Z,74.8
2023-01-25T08:30:00.697Z,75.2
2023-01-25T08:35:00.607Z,74.9
2023-01-25T08:40:00.631Z,74.0
2023-01-25T08:45:00.832Z,73.4
2023-01-25T08:50:00.656Z,73.5
2023-01-25T08:55:00.644Z,73.3
2023-01-25T09:00:00.646Z,73.8
2023-01-25T09:05:00.623Z,76.4
2023-01-25T09:10:00.660Z,76.9
2023-01-25T09:15:00.662Z,75.5
2023-01-25T09:20:00.642Z,74.8
2023-01-25T09:25:00.614Z,74.4
2023-01-25T09:30:02.334Z,74.0
2023-01-25T09:35:00.613Z,73.8
2023-01-25T09:40:00.656Z,75.3
2023-01-25T09:45:00.639Z,77.0
2023-01-25T09:50:00.620Z,76.1
2023-01-25T09:55:00.640Z,76.8
2023-01-25T10:00:01.858Z,76.4
2023-01-25T10:05:00.614Z,75.8
2023-01-25T10:10:00.673Z,74.3
2023-01-25T10:15:00.652Z,74.1
2023-01-25T10:20:00.647Z,73.7
2023-01-25T10:25:00.627Z,75.5
2023-01-25T10:30:00.662Z,74.2
2023-01-25T10:35:01.660Z,74.4
2023-01-25T10:40:00.650Z,77.3
2023-01-25T10:45:00.918Z,77.5
2023-01-25T10:50:00.651Z,78.0
2023-01-25T10:55:00.632Z,75.8
2023-01-25T11:00:01.051Z,74.7
2023-01-25T11:05:00.628Z,75.4
2023-01-25T11:10:00.610Z,74.1
2023-01-25T11:15:00.658Z,73.4
2023-01-25T11:20:00.647Z,73.5
2023-01-25T11:25:00.610Z,73.2
2023-01-25T11:30:00.677Z,72.8
2023-01-25T11:35:00.618Z,73.7
2023-01-25T11:40:00.669Z,73.2
2023-01-25T11:45:00.643Z,72.9
2023-01-25T11:50:00.653Z,75.1
2023-01-25T11:55:00.614Z,75.6
2023-01-25T12:00:02.667Z,75.5
2023-01-25T12:05:06.279Z,75.3
2023-01-25T12:10:00.625Z,75.1
2023-01-25T12:15:00.651Z,75.6
2023-01-25T12:20:00.628Z,74.5
2023-01-25T12:25:00.656Z,73.7
2023-01-25T12:30:00.635Z,73.6
2023-01-25T12:35:00.650Z,74.8
2023-01-25T12:40:00.656Z,77.3
2023-01-25T12:45:00.617Z,76.5
2023-01-25T12:50:00.890Z,75.3
2023-01-25T12:55:00.646Z,75.1
2023-01-25T13:00:00.735Z,77.2
2023-01-25T13:05:00.660Z,77.5
2023-01-25T13:10:00.646Z,77.9
2023-01-25T13:15:00.624Z,78.3
2023-01-25T13:20:00.730Z,77.9
2023-01-25T13:25:00.641Z,78.9
2023-01-25T13:30:00.649Z,77.9
2023-01-25T13:35:00.667Z,77.2
2023-01-25T13:40:06.609Z,76.2
2023-01-25T13:45:00.674Z,78.3
2023-01-25T13:50:00.650Z,78.8
2023-01-25T13:55:00.673Z,78.2
2023-01-25T14:00:09.804Z,79.9
2023-01-25T14:05:00.618Z,78.9
2023-01-25T14:10:00.648Z,77.5
2023-01-25T14:15:00.609Z,76.5
2023-01-25T14:20:00.648Z,78.8
2023-01-25T14:25:00.687Z,79.0
2023-01-25T14:30:00.637Z,78.3
2023-01-25T14:35:00.648Z,78.1
2023-01-25T14:40:00.617Z,77.6
2023-01-25T14:45:00.699Z,77.4
2023-01-25T14:50:00.609Z,77.4
2023-01-25T14:55:00.640Z,78.2
2023-01-25T15:00:00.678Z,77.5
2023-01-25T15:05:02.854Z,77.9
2023-01-25T15:10:00.624Z,79.4
2023-01-25T15:15:00.659Z,77.8
2023-01-25T15:20:00.628Z,78.4
2023-01-25T15:25:00.653Z,78.3
2023-01-25T15:30:00.640Z,78.6
2023-01-25T15:35:02.311Z,78.7
2023-01-25T15:40:00.626Z,78.1
2023-01-25T15:45:00.652Z,78.3
2023-01-25T15:50:00.689Z,78.3
2023-01-25T15:55:02.101Z,79.4
2023-01-25T16:00:02.338Z,80.4
2023-01-25T16:05:00.652Z,80.5
2023-01-25T16:10:00.770Z,82.2
2023-01-25T16:15:00.613Z,84.6
2023-01-25T16:20:00.643Z,84.2
2023-01-25T16:25:00.671Z,84.2
2023-01-25T16:30:00.673Z,84.4
2023-01-25T16:35:00.606Z,84.2
2023-01-25T16:40:00.644Z,82.2
2023-01-25T16:45:00.603Z,80.8
2023-01-25T16:50:00.646Z,80.3
2023-01-25T16:55:00.664Z,81.1
2023-01-25T17:00:03.038Z,83.8
2023-01-25T17:05:00.667Z,84.9
2023-01-25T17:10:00.643Z,84.1
2023-01-25T17:15:00.617Z,84.2
2023-01-25T17:20:00.687Z,84.3
2023-01-25T17:25:00.680Z,83.4
2023-01-25T17:30:00.662Z,81.2
2023-01-25T17:35:00.639Z,81.3
2023-01-25T17:40:00.667Z,81.7
2023-01-25T17:45:00.639Z,83.5
2023-01-25T17:50:00.618Z,84.1
2023-01-25T17:55:00.682Z,83.0
2023-01-25T18:00:00.639Z,83.2
2023-01-25T18:05:00.651Z,81.9
2023-01-25T18:10:00.607Z,81.9
2023-01-25T18:15:00.652Z,81.6
2023-01-25T18:20:00.611Z,83.3
2023-01-25T18:25:00.671Z,82.0
2023-01-25T18:30:00.661Z,80.6
2023-01-25T18:35:00.653Z,80.1
2023-01-25T18:40:00.624Z,79.2
2023-01-25T18:45:00.640Z,79.1
2023-01-25T18:50:00.674Z,81.0
2023-01-25T18:55:00.612Z,81.5
2023-01-25T19:00:00.715Z,80.8
2023-01-25T19:05:00.666Z,80.8
2023-01-25T19:10:00.654Z,79.0
2023-01-25T19:15:00.613Z,78.4
2023-01-25T19:20:00.645Z,78.0
2023-01-25T19:25:00.642Z,78.6
2023-01-25T19:30:00.611Z,77.9
2023-01-25T19:35:00.725Z,77.4
2023-01-25T19:40:00.636Z,77.6
2023-01-25T19:45:00.637Z,78.1
2023-01-25T19:50:00.675Z,79.0
2023-01-25T19:55:00.615Z,80.7
2023-01-25T20:00:00.662Z,78.7
2023-01-25T20:05:00.648Z,78.0
2023-01-25T20:10:00.639Z,78.4
2023-01-25T20:15:00.619Z,77.5
2023-01-25T20:20:00.657Z,77.1
2023-01-25T20:25:00.634Z,77.7
2023-01-25T20:30:00.646Z,77.3
2023-01-25T20:35:00.624Z,78.0
2023-01-25T20:40:00.665Z,78.0
2023-01-25T20:45:00.620Z,79.7
2023-01-25T20:50:00.657Z,78.2
2023-01-25T20:55:00.676Z,77.9
2023-01-25T21:00:00.628Z,77.9
2023-01-25T21:05:00.655Z,77.5
2023-01-25T21:10:00.634Z,78.4
2023-01-25T21:15:00.643Z,78.2
2023-01-25T21:20:00.623Z,77.5
2023-01-25T21:25:00.690Z,77.5
2023-01-25T21:30:00.607Z,77.9
2023-01-25T21:35:00.619Z,78.0
2023-01-25T21:40:00.634Z,77.6
2023-01-25T21:45:00.642Z,79.1
2023-01-25T21:50:00.645Z,78.6
2023-01-25T21:55:00.666Z,79.2
2023-01-25T22:00:02.801Z,80.1
2023-01-25T22:05:00.628Z,77.8
2023-01-25T22:10:00.660Z,77.3
2023-01-25T22:15:00.662Z,77.6
2023-01-25T22:20:00.656Z,77.5
2023-01-25T22:25:00.611Z,77.9
2023-01-25T22:30:00.653Z,77.2
2023-01-25T22:35:00.655Z,77.4
2023-01-25T22:40:00.646Z,77.3
2023-01-25T22:45:00.625Z,77.4
2023-01-25T22:50:00.657Z,77.4
2023-01-25T22:55:00.636Z,77.7
2023-01-25T23:00:00.656Z,77.4
2023-01-25T23:05:00.604Z,77.9
2023-01-25T23:10:02.177Z,78.3
2023-01-25T23:15:00.601Z,78.5
2023-01-25T23:20:00.647Z,78.6
2023-01-25T23:25:00.642Z,78.6
2023-01-25T23:30:00.670Z,79.1
2023-01-25T23:35:00.614Z,79.5
2023-01-25T23:40:00.645Z,79.7
2023-01-25T23:45:00.672Z,78.8
2023-01-25T23:50:00.641Z,79.3
2023-01-25T23:55:00.671Z,78.7
